createdAt,value
2018-05-21T00:00:29.636Z,97325.35
2018-05-21T00:03:03.392Z,97317.36
2018-05-21T00:05:33.787Z,97322.70
2018-05-21T00:08:04.499Z,97323.66
2018-05-21T00:10:34.643Z,97316.15
2018-05-21T00:13:07.406Z,97321.47
2018-05-21T00:15:38.639Z,97328.59
2018-05-21T00:18:10.620Z,97315.84
2018-05-21T00:21:22.288Z,97315.63
2018-05-21T00:23:55.606Z,97315.63
2018-05-21T00:26:25.808Z,97314.00
2018-05-21T00:28:56.724Z,97317.77
2018-05-21T00:31:27.599Z,97306.98
2018-05-21T00:33:59.842Z,97304.61
2018-05-21T00:36:29.802Z,97304.40
2018-05-21T00:39:01.769Z,97305.94
2018-05-21T00:41:30.928Z,97309.06
2018-05-21T00:44:02.341Z,97300.91
2018-05-21T00:46:33.285Z,97301.91
2018-05-21T00:49:04.171Z,97299.28
2018-05-21T00:51:33.703Z,97303.87
2018-05-21T00:54:04.569Z,97296.28
2018-05-21T00:56:35.637Z,97298.48
2018-05-21T00:59:05.709Z,97284.34
2018-05-21T01:01:38.399Z,97295.48
2018-05-21T01:04:09.541Z,97287.70
2018-05-21T01:06:39.482Z,97291.66
2018-05-21T01:09:09.838Z,97292.40
2018-05-21T01:11:39.952Z,97292.40
2018-05-21T01:14:10.521Z,97279.19
2018-05-21T01:16:39.834Z,97277.47
2018-05-21T01:19:13.313Z,97277.06
2018-05-21T01:21:42.682Z,97283.02
2018-05-21T01:24:13.579Z,97274.88
2018-05-21T01:26:46.967Z,97280.42
2018-05-21T01:29:18.197Z,97273.88
2018-05-21T01:31:47.783Z,97275.86
2018-05-21T01:34:20.008Z,97274.63
2018-05-21T01:36:51.202Z,97276.41
2018-05-21T01:39:21.447Z,97275.42
2018-05-21T01:41:51.500Z,97279.59
2018-05-21T01:44:20.971Z,97279.19
2018-05-21T01:46:50.867Z,97272.65
2018-05-21T01:49:21.282Z,97276.02
2018-05-21T01:54:28.473Z,97270.80
2018-05-21T01:57:05.240Z,97274.16
2018-05-21T01:59:35.295Z,97268.21
2018-05-21T02:02:08.730Z,97270.19
2018-05-21T02:04:49.618Z,97273.36
2018-05-21T02:07:21.365Z,97262.01
2018-05-21T02:09:53.607Z,97264.78
2018-05-21T02:12:22.862Z,97265.53
2018-05-21T02:14:53.193Z,97265.53
2018-05-21T02:17:23.051Z,97267.10
2018-05-21T02:19:52.747Z,97264.72
2018-05-21T02:22:21.918Z,97259.76
2018-05-21T02:24:50.892Z,97251.42
2018-05-21T02:27:20.806Z,97257.56
2018-05-21T02:29:51.274Z,97257.56
2018-05-21T02:32:20.801Z,97257.56
2018-05-21T02:34:50.286Z,97255.78
2018-05-21T02:37:19.958Z,97258.95
2018-05-21T02:39:50.876Z,97254.94
2018-05-21T02:42:20.346Z,97259.11
2018-05-21T02:44:49.848Z,97251.37
2018-05-21T02:47:19.375Z,97259.88
2018-05-21T02:49:48.707Z,97254.55
2018-05-21T02:52:18.103Z,97265.25
2018-05-21T02:54:47.732Z,97254.33
2018-05-21T02:57:20.094Z,97259.45
2018-05-21T03:00:18.859Z,97258.50
2018-05-21T03:02:48.407Z,97260.22
2018-05-21T03:05:19.814Z,97255.07
2018-05-21T03:07:49.221Z,97253.84
2018-05-21T03:10:20.843Z,97254.61
2018-05-21T03:14:42.669Z,97255.59
2018-05-21T03:17:12.721Z,97267.66
2018-05-21T03:19:41.805Z,97255.75
2018-05-21T03:22:11.181Z,97258.93
2018-05-21T03:24:40.829Z,97258.93
2018-05-21T03:27:10.356Z,97264.08
2018-05-21T03:29:39.662Z,97261.70
2018-05-21T03:32:09.233Z,97260.50
2018-05-21T03:34:39.593Z,97258.13
2018-05-21T03:37:09.674Z,97254.55
2018-05-21T03:39:39.187Z,97259.85
2018-05-21T03:42:08.540Z,97258.47
2018-05-21T03:44:38.730Z,97260.66
2018-05-21T03:47:08.036Z,97258.47
2018-05-21T03:49:37.845Z,97262.05
2018-05-21T03:52:07.328Z,97262.63
2018-05-21T03:54:36.721Z,97267.97
2018-05-21T03:57:06.255Z,97263.80
2018-05-21T03:59:53.600Z,97263.62
2018-05-21T04:02:41.346Z,97262.81
2018-05-21T04:05:11.639Z,97268.92
2018-05-21T04:07:40.946Z,97263.16
2018-05-21T04:10:10.555Z,97257.76
2018-05-21T04:12:39.726Z,97260.38
2018-05-21T04:15:08.877Z,97270.69
2018-05-21T04:17:38.791Z,97263.95
2018-05-21T04:20:09.217Z,97263.56
2018-05-21T04:22:39.784Z,97262.75
2018-05-21T04:25:09.281Z,97273.46
2018-05-21T04:27:38.655Z,97272.63
2018-05-21T04:30:07.983Z,97275.41
2018-05-21T04:32:37.379Z,97266.52
2018-05-21T04:35:07.797Z,97266.52
2018-05-21T04:37:37.187Z,97266.92
2018-05-21T04:40:07.430Z,97269.70
2018-05-21T04:42:36.877Z,97273.46
2018-05-21T04:45:06.313Z,97264.70
2018-05-21T04:47:36.709Z,97275.80
2018-05-21T04:50:06.161Z,97275.25
2018-05-21T04:52:35.586Z,97276.39
2018-05-21T04:55:05.632Z,97277.78
2018-05-21T04:57:34.709Z,97286.51
2018-05-21T05:00:04.671Z,97284.47
2018-05-21T05:02:34.138Z,97286.11
2018-05-21T05:05:04.264Z,97287.09
2018-05-21T05:07:33.580Z,97290.86
2018-05-21T05:10:03.501Z,97287.69
2018-05-21T05:12:33.242Z,97295.67
2018-05-21T05:15:03.883Z,97287.25
2018-05-21T05:17:33.224Z,97289.07
2018-05-21T05:20:04.237Z,97285.86
2018-05-21T05:22:34.419Z,97288.73
2018-05-21T05:25:04.415Z,97284.56
2018-05-21T05:27:33.844Z,97287.96
2018-05-21T05:30:03.556Z,97284.20
2018-05-21T05:32:33.187Z,97279.48
2018-05-21T05:35:05.255Z,97288.80
2018-05-21T05:37:34.687Z,97277.16
2018-05-21T05:40:04.855Z,97282.41
2018-05-21T05:42:34.641Z,97282.53
2018-05-21T05:45:04.442Z,97274.97
2018-05-21T05:47:33.656Z,97282.13
2018-05-21T05:50:03.490Z,97273.64
2018-05-21T05:52:32.999Z,97278.37
2018-05-21T05:55:03.805Z,97282.94
2018-05-21T05:57:33.292Z,97283.18
2018-05-21T06:00:03.558Z,97275.44
2018-05-21T06:02:33.269Z,97270.09
2018-05-21T06:05:02.689Z,97269.36
2018-05-21T06:07:32.441Z,97280.70
2018-05-21T06:10:02.447Z,97275.16
2018-05-21T06:12:31.783Z,97273.39
2018-05-21T06:15:02.263Z,97280.40
2018-05-21T06:17:32.683Z,97275.30
2018-05-21T06:20:03.308Z,97285.61
2018-05-21T06:22:32.904Z,97289.09
2018-05-21T06:25:02.515Z,97289.56
2018-05-21T06:27:32.254Z,97292.40
2018-05-21T06:30:02.341Z,97291.81
2018-05-21T06:32:31.721Z,97288.88
2018-05-21T06:35:00.962Z,97288.88
2018-05-21T06:37:30.758Z,97290.83
2018-05-21T06:40:04.268Z,97287.43
2018-05-21T06:42:34.446Z,97288.97
2018-05-21T06:45:04.495Z,97285.39
2018-05-21T06:47:33.996Z,97283.60
2018-05-21T06:50:03.743Z,97285.73
2018-05-21T06:52:33.708Z,97291.75
2018-05-21T06:56:27.524Z,97293.23
2018-05-21T06:58:57.622Z,97301.29
2018-05-21T07:01:26.807Z,97295.80
2018-05-21T07:03:56.270Z,97295.80
2018-05-21T07:06:26.464Z,97298.05
2018-05-21T07:08:55.894Z,97293.08
2018-05-21T07:11:25.755Z,97290.61
2018-05-21T07:13:54.890Z,97287.55
2018-05-21T07:16:24.994Z,97296.16
2018-05-21T07:18:54.996Z,97290.51
2018-05-21T07:24:07.697Z,97283.16
2018-05-21T07:26:36.869Z,97280.03
2018-05-21T07:29:06.852Z,97284.08
2018-05-21T07:31:36.185Z,97287.09
2018-05-21T07:38:59.665Z,97279.97
2018-05-21T07:41:29.470Z,97271.42
2018-05-21T07:43:58.777Z,97277.38
2018-05-21T07:46:29.249Z,97277.25
2018-05-21T07:48:58.787Z,97272.95
2018-05-21T07:51:28.619Z,97270.48
2018-05-21T07:53:58.713Z,97273.50
2018-05-21T07:56:28.842Z,97272.91
2018-05-21T07:59:03.372Z,97269.73
2018-05-21T08:01:43.001Z,97271.28
2018-05-21T08:07:27.313Z,97272.27
2018-05-21T08:09:57.663Z,97269.09
2018-05-21T08:12:37.874Z,97267.88
2018-05-21T08:15:07.348Z,97266.89
2018-05-21T08:17:36.790Z,97267.88
2018-05-21T08:20:06.115Z,97263.93
2018-05-21T08:22:35.506Z,97268.09
2018-05-21T08:25:04.627Z,97265.45
2018-05-21T08:27:34.011Z,97260.01
2018-05-21T08:30:04.171Z,97259.61
2018-05-21T08:32:34.444Z,97255.44
2018-05-21T08:35:04.745Z,97260.41
2018-05-21T08:37:34.243Z,97254.85
2018-05-21T08:40:04.351Z,97260.41
2018-05-21T08:42:33.851Z,97258.03
2018-05-21T08:45:04.838Z,97264.17
2018-05-21T08:47:35.274Z,97258.03
2018-05-21T08:50:05.602Z,97260.01
2018-05-21T08:52:34.726Z,97259.77
2018-05-21T08:55:04.875Z,97260.34
2018-05-21T08:57:33.698Z,97265.91
2018-05-21T09:00:03.602Z,97269.48
2018-05-21T09:02:33.025Z,97273.01
2018-05-21T09:05:02.758Z,97261.68
2018-05-21T09:07:32.861Z,97268.44
2018-05-21T09:10:02.881Z,97266.25
2018-05-21T09:12:32.298Z,97269.03
2018-05-21T09:15:02.500Z,97267.05
2018-05-21T09:17:31.708Z,97269.83
2018-05-21T09:20:01.033Z,97271.06
2018-05-21T09:22:31.488Z,97271.63
2018-05-21T09:25:00.967Z,97269.43
2018-05-21T09:27:30.394Z,97270.02
2018-05-21T09:30:01.019Z,97267.23
2018-05-21T09:32:31.468Z,97265.27
2018-05-21T09:35:02.412Z,97271.47
2018-05-21T09:37:31.818Z,97269.73
2018-05-21T09:40:01.278Z,97267.57
2018-05-21T09:42:31.670Z,97272.52
2018-05-21T09:45:02.411Z,97266.55
2018-05-21T09:47:31.964Z,97267.36
2018-05-21T09:50:01.787Z,97267.70
2018-05-21T09:52:31.346Z,97270.29
2018-05-21T09:55:03.799Z,97264.73
2018-05-21T09:57:32.929Z,97264.92
2018-05-21T10:00:02.316Z,97271.47
2018-05-21T10:02:31.734Z,97266.70
2018-05-21T10:05:02.654Z,97265.11
2018-05-21T10:07:31.861Z,97266.49
2018-05-21T10:10:00.985Z,97260.94
2018-05-21T10:12:30.407Z,97256.58
2018-05-21T10:14:59.654Z,97260.94
2018-05-21T10:17:28.707Z,97260.75
2018-05-21T10:19:57.774Z,97258.96
2018-05-21T10:22:27.834Z,97256.58
2018-05-21T10:24:57.245Z,97256.34
2018-05-21T10:27:26.777Z,97249.17
2018-05-21T10:29:56.249Z,97258.50
2018-05-21T10:32:25.935Z,97252.55
2018-05-21T10:34:55.413Z,97254.33
2018-05-21T10:37:24.687Z,97249.17
2018-05-21T10:39:53.947Z,97242.98
2018-05-21T10:42:22.569Z,97242.77
2018-05-21T10:44:52.295Z,97244.20
2018-05-21T10:47:22.619Z,97244.67
2018-05-21T10:49:52.298Z,97241.76
2018-05-21T10:52:21.719Z,97238.88
2018-05-21T10:54:50.988Z,97236.16
2018-05-21T10:57:20.350Z,97239.61
2018-05-21T10:59:50.285Z,97236.48
2018-05-21T11:02:20.447Z,97235.44
2018-05-21T11:04:49.724Z,97240.08
2018-05-21T11:07:19.326Z,97243.14
2018-05-21T11:09:48.741Z,97237.47
2018-05-21T11:12:18.102Z,97239.92
2018-05-21T11:14:48.096Z,97234.75
2018-05-21T11:17:18.213Z,97231.86
2018-05-21T11:19:47.724Z,97233.03
2018-05-21T11:22:17.287Z,97239.23
2018-05-21T11:24:46.734Z,97231.70
2018-05-21T11:27:15.972Z,97231.98
2018-05-21T11:29:46.264Z,97226.48
2018-05-21T11:32:16.701Z,97231.13
2018-05-21T11:34:45.896Z,97216.47
2018-05-21T11:37:15.398Z,97221.87
2018-05-21T11:39:44.856Z,97217.52
2018-05-21T11:42:14.368Z,97212.36
2018-05-21T11:44:43.923Z,97215.14
2018-05-21T11:47:12.730Z,97214.92
2018-05-21T11:49:43.529Z,97213.13
2018-05-21T11:52:12.714Z,97204.42
2018-05-21T11:54:41.799Z,97206.40
2018-05-21T11:57:11.194Z,97210.81
2018-05-21T11:59:40.596Z,97206.64
2018-05-21T12:02:10.327Z,97204.27
2018-05-21T12:04:39.752Z,97203.47
2018-05-21T12:07:09.665Z,97208.78
2018-05-21T12:09:38.945Z,97208.61
2018-05-21T12:12:07.657Z,97221.97
2018-05-21T12:14:37.367Z,97208.20
2018-05-21T12:17:07.813Z,97207.96
2018-05-21T12:19:37.464Z,97202.65
2018-05-21T12:22:06.785Z,97202.06
2018-05-21T12:24:36.467Z,97206.41
2018-05-21T12:27:06.519Z,97204.84
2018-05-21T12:29:35.737Z,97206.23
2018-05-21T12:32:06.095Z,97202.12
2018-05-21T12:34:37.465Z,97199.73
2018-05-21T12:37:06.709Z,97191.46
2018-05-21T12:39:36.191Z,97198.41
2018-05-21T12:42:08.232Z,97200.78
2018-05-21T12:44:37.931Z,97200.62
2018-05-21T12:47:07.891Z,97206.98
2018-05-21T12:49:37.344Z,97199.59
2018-05-21T12:52:08.549Z,97198.01
2018-05-21T12:54:37.860Z,97196.62
2018-05-21T12:57:08.703Z,97190.13
2018-05-21T12:59:54.984Z,97187.59
2018-05-21T13:02:24.535Z,97188.98
2018-05-21T13:04:54.644Z,97186.36
2018-05-21T13:07:25.019Z,97187.75
2018-05-21T13:09:55.209Z,97188.00
2018-05-21T13:12:25.649Z,97188.19
2018-05-21T13:14:55.352Z,97181.58
2018-05-21T13:17:25.796Z,97179.88
2018-05-21T13:20:15.939Z,97172.37
2018-05-21T13:23:11.978Z,97175.55
2018-05-21T13:26:07.329Z,97167.02
2018-05-21T13:28:36.766Z,97163.69
2018-05-21T13:31:09.227Z,97155.16
2018-05-21T13:33:39.843Z,97161.52
2018-05-21T13:36:10.727Z,97155.81
2018-05-21T13:38:40.964Z,97166.14
2018-05-21T13:41:11.377Z,97151.50
2018-05-21T13:43:50.210Z,97146.59
2018-05-21T13:46:19.937Z,97150.36
2018-05-21T13:48:49.688Z,97145.60
2018-05-21T13:51:19.034Z,97137.86
2018-05-21T13:53:48.448Z,97142.87
2018-05-21T13:56:28.328Z,97135.87
2018-05-21T13:59:00.313Z,97140.16
2018-05-21T14:01:32.493Z,97141.30
2018-05-21T14:04:02.402Z,97138.52
2018-05-21T14:06:32.290Z,97138.52
2018-05-21T14:09:05.835Z,97140.34
2018-05-21T14:11:35.216Z,97135.48
2018-05-21T14:14:05.841Z,97134.43
2018-05-21T14:16:45.035Z,97131.47
2018-05-21T14:19:16.607Z,97135.87
2018-05-21T14:21:47.802Z,97132.51
2018-05-21T14:24:17.366Z,97133.90
2018-05-21T14:26:46.959Z,97135.23
2018-05-21T14:29:16.610Z,97133.84
2018-05-21T14:31:45.824Z,97136.41
2018-05-21T14:34:15.008Z,97125.45
2018-05-21T14:36:56.637Z,97129.57
2018-05-21T14:39:26.736Z,97124.59
2018-05-21T14:41:55.963Z,97122.81
2018-05-21T14:44:26.433Z,97125.64
2018-05-21T14:46:55.869Z,97126.23
2018-05-21T14:49:25.573Z,97132.75
2018-05-21T14:51:54.986Z,97128.18
2018-05-21T14:54:25.401Z,97128.18
2018-05-21T14:56:54.702Z,97126.23
2018-05-21T14:59:24.015Z,97125.41
2018-05-21T15:01:54.524Z,97123.61
2018-05-21T15:04:23.826Z,97116.45
2018-05-21T15:06:53.347Z,97113.48
2018-05-21T15:09:22.779Z,97106.54
2018-05-21T15:11:52.677Z,97104.41
2018-05-21T15:14:21.864Z,97106.99
2018-05-21T15:16:52.185Z,97103.23
2018-05-21T15:19:31.666Z,97110.58
2018-05-21T15:25:26.419Z,97106.94
2018-05-21T15:31:04.456Z,97103.95
2018-05-21T15:33:33.728Z,97097.16
2018-05-21T15:36:03.748Z,97096.17
2018-05-21T15:38:33.290Z,97096.36
2018-05-21T15:41:03.487Z,97090.80
2018-05-21T15:43:33.618Z,97101.33
2018-05-21T15:46:04.280Z,97111.05
2018-05-21T15:48:33.691Z,97116.45
2018-05-21T15:51:03.701Z,97119.05
2018-05-21T15:53:33.255Z,97118.85
2018-05-21T15:56:04.310Z,97121.47
2018-05-21T15:58:33.714Z,97123.45
2018-05-21T16:01:03.775Z,97125.00
2018-05-21T16:03:33.280Z,97125.41
2018-05-21T16:06:02.743Z,97128.58
2018-05-21T16:08:31.965Z,97131.14
2018-05-21T16:11:02.616Z,97121.02
2018-05-21T16:13:32.019Z,97124.36
2018-05-21T16:16:02.230Z,97116.80
2018-05-21T16:18:51.291Z,97117.60
2018-05-21T16:21:21.392Z,97121.77
2018-05-21T16:23:50.773Z,97122.76
2018-05-21T16:26:20.323Z,97122.17
2018-05-21T16:28:50.582Z,97121.77
2018-05-21T16:31:19.847Z,97123.75
2018-05-21T16:33:50.231Z,97133.07
2018-05-21T16:36:20.476Z,97149.89
2018-05-21T16:38:50.260Z,97166.76
2018-05-21T16:41:20.452Z,97172.72
2018-05-21T16:43:50.564Z,97183.42
2018-05-21T16:46:20.411Z,97190.13
2018-05-21T16:48:50.482Z,97188.74
2018-05-21T16:51:19.858Z,97175.25
2018-05-21T16:53:49.345Z,97175.84
2018-05-21T16:56:18.630Z,97166.70
2018-05-21T16:58:48.643Z,97160.75
2018-05-21T17:01:17.821Z,97155.34
2018-05-21T17:03:47.262Z,97152.17
2018-05-21T17:06:17.258Z,97160.69
2018-05-21T17:08:47.727Z,97157.91
2018-05-21T17:11:16.935Z,97154.68
2018-05-21T17:13:45.622Z,97150.08
2018-05-21T17:16:15.327Z,97148.08
2018-05-21T17:18:44.625Z,97149.22
2018-05-21T17:21:13.870Z,97161.14
2018-05-21T17:23:43.309Z,97167.68
2018-05-21T17:26:13.523Z,97174.01
2018-05-21T17:28:43.679Z,97181.76
2018-05-21T17:31:12.919Z,97187.31
2018-05-21T17:33:42.324Z,97183.73
2018-05-21T17:36:12.721Z,97185.34
2018-05-21T17:38:42.043Z,97197.04
2018-05-21T17:41:12.349Z,97196.80
2018-05-21T17:43:42.904Z,97196.80
2018-05-21T17:46:12.735Z,97197.78
2018-05-21T17:48:41.922Z,97198.77
2018-05-21T17:51:11.417Z,97197.19
2018-05-21T17:53:40.661Z,97190.84
2018-05-21T17:56:11.238Z,97193.61
2018-05-21T17:58:40.701Z,97200.75
2018-05-21T18:01:10.779Z,97197.97
2018-05-21T18:03:40.241Z,97192.97
2018-05-21T18:06:09.600Z,97187.59
2018-05-21T18:08:38.786Z,97181.45
2018-05-21T18:11:08.810Z,97183.44
2018-05-21T18:13:38.433Z,97184.58
2018-05-21T18:16:08.594Z,97185.16
2018-05-21T18:18:37.740Z,97180.36
2018-05-21T18:21:07.017Z,97174.98
2018-05-21T18:23:36.514Z,97181.53
2018-05-21T18:26:05.808Z,97178.16
2018-05-21T18:28:35.367Z,97178.75
2018-05-21T18:31:05.654Z,97186.50
2018-05-21T18:33:36.783Z,97186.50
2018-05-21T18:36:06.357Z,97182.33
2018-05-21T18:38:35.732Z,97180.54
2018-05-21T18:48:02.965Z,97172.50
2018-05-21T18:50:33.429Z,97168.61
2018-05-21T18:53:03.887Z,97176.03
2018-05-21T18:58:42.611Z,97178.39
2018-05-21T19:04:25.864Z,97189.92
2018-05-21T19:06:55.002Z,97170.69
2018-05-21T19:09:24.503Z,97171.13
2018-05-21T19:11:55.555Z,97178.18
2018-05-21T19:14:25.749Z,97177.86
2018-05-21T19:16:55.299Z,97180.14
2018-05-21T19:19:25.690Z,97183.91
2018-05-21T19:21:56.456Z,97184.92
2018-05-21T19:24:25.844Z,97185.80
2018-05-21T19:26:55.813Z,97180.70
2018-05-21T19:29:25.352Z,97177.39
2018-05-21T19:31:55.614Z,97182.02
2018-05-21T19:35:35.894Z,97188.63
2018-05-21T19:38:05.444Z,97180.52
2018-05-21T19:40:35.638Z,97186.64
2018-05-21T19:43:04.973Z,97189.42
2018-05-21T19:45:34.465Z,97184.69
2018-05-21T19:48:04.389Z,97183.52
2018-05-21T19:51:05.927Z,97186.88
2018-05-21T19:53:37.830Z,97195.55
2018-05-21T19:56:07.397Z,97199.90
2018-05-21T19:58:37.606Z,97199.16
2018-05-21T20:01:09.751Z,97198.33
2018-05-21T20:03:39.266Z,97200.64
2018-05-21T20:06:19.746Z,97202.63
2018-05-21T20:09:04.617Z,97197.71
2018-05-21T20:11:40.578Z,97194.69
2018-05-21T20:14:10.622Z,97190.36
2018-05-21T20:17:00.774Z,97194.69
2018-05-21T20:22:00.788Z,97198.70
2018-05-21T20:24:30.242Z,97205.05
2018-05-21T20:26:59.842Z,97206.50
2018-05-21T20:29:30.868Z,97204.17
2018-05-21T20:32:00.775Z,97202.55
2018-05-21T20:37:48.617Z,97201.05
2018-05-21T20:40:21.221Z,97201.86
2018-05-21T20:42:50.565Z,97207.66
2018-05-21T20:45:20.700Z,97204.88
2018-05-21T20:47:50.226Z,97206.27
2018-05-21T20:51:27.276Z,97206.48
2018-05-21T20:56:31.708Z,97208.62
2018-05-21T20:59:00.999Z,97215.01
2018-05-21T21:01:30.446Z,97213.61
2018-05-21T21:03:59.673Z,97213.22
2018-05-21T21:06:29.285Z,97211.23
2018-05-21T21:08:58.823Z,97208.27
2018-05-21T21:11:28.459Z,97202.90
2018-05-21T21:13:58.878Z,97208.05
2018-05-21T21:20:23.853Z,97210.06
2018-05-21T21:22:53.181Z,97211.64
2018-05-21T21:25:23.674Z,97205.09
2018-05-21T21:27:52.772Z,97211.45
2018-05-21T21:30:24.158Z,97210.65
2018-05-21T21:32:54.527Z,97213.67
2018-05-21T21:35:24.495Z,97214.88
2018-05-21T21:37:53.838Z,97213.48
2018-05-21T21:40:24.768Z,97203.59
2018-05-21T21:42:54.775Z,97210.12
2018-05-21T21:45:24.170Z,97206.78
2018-05-21T21:53:20.384Z,97213.14
2018-05-21T22:01:47.324Z,97217.06
2018-05-21T22:04:18.233Z,97208.73
2018-05-21T22:06:47.616Z,97202.09
2018-05-21T22:09:17.675Z,97208.38
2018-05-21T22:11:46.844Z,97207.17
2018-05-21T22:14:16.570Z,97202.20
2018-05-21T22:16:47.738Z,97208.73
2018-05-21T22:19:17.281Z,97208.52
2018-05-21T22:21:46.961Z,97197.45
2018-05-21T22:24:15.843Z,97208.45
2018-05-21T22:26:48.198Z,97203.59
2018-05-21T22:29:18.465Z,97218.08
2018-05-21T22:31:48.751Z,97220.21
2018-05-21T22:34:18.688Z,97204.13
2018-05-21T22:36:53.318Z,97211.42
2018-05-21T22:39:24.425Z,97207.03
2018-05-21T22:41:54.838Z,97211.55
2018-05-21T22:44:32.883Z,97208.92
2018-05-21T22:47:14.415Z,97206.49
2018-05-21T22:49:50.481Z,97211.03
2018-05-21T22:52:20.335Z,97202.86
2018-05-21T22:54:51.314Z,97205.17
2018-05-21T22:57:20.761Z,97200.21
2018-05-21T22:59:50.285Z,97206.17
2018-05-21T23:02:24.654Z,97209.11
2018-05-21T23:04:54.145Z,97198.42
2018-05-21T23:07:26.843Z,97201.95
2018-05-21T23:09:57.743Z,97202.93
2018-05-21T23:12:29.005Z,97197.53
2018-05-21T23:15:00.554Z,97195.34
2018-05-21T23:17:32.482Z,97195.93
2018-05-21T23:20:04.426Z,97207.63
2018-05-21T23:22:46.623Z,97196.28
2018-05-21T23:25:16.906Z,97194.64
2018-05-21T23:27:46.180Z,97192.30
2018-05-21T23:30:17.431Z,97204.16
2018-05-21T23:32:47.867Z,97202.70
2018-05-21T23:35:18.392Z,97202.92
2018-05-21T23:37:48.431Z,97204.89
2018-05-21T23:40:18.974Z,97202.92
2018-05-21T23:42:50.302Z,97202.12
2018-05-21T23:45:21.605Z,97203.70
2018-05-21T23:47:52.779Z,97205.24
2018-05-21T23:50:22.271Z,97194.91
2018-05-21T23:52:52.662Z,97193.33
2018-05-21T23:55:23.928Z,97189.75
2018-05-21T23:57:53.863Z,97194.31
